createdAt,value
2023-05-16T00:02:17.814Z,99.90
2023-05-16T00:04:47.525Z,99.90
2023-05-16T00:07:15.764Z,99.90
2023-05-16T00:09:43.862Z,99.90
2023-05-16T00:12:13.404Z,99.90
2023-05-16T00:14:41.968Z,99.90
2023-05-16T00:17:12.265Z,99.90
2023-05-16T00:19:42.071Z,99.90
2023-05-16T00:22:11.468Z,99.90
2023-05-16T00:24:39.863Z,99.90
2023-05-16T00:27:07.998Z,1.00
2023-05-16T00:29:37.561Z,1.00
2023-05-16T00:32:08.703Z,1.00
2023-05-16T00:34:37.303Z,94.00
2023-05-16T00:37:07.944Z,52.80
2023-05-16T00:39:36.068Z,99.90
2023-05-16T00:42:04.588Z,99.90
2023-05-16T00:44:33.009Z,1.00
2023-05-16T00:47:03.736Z,21.90
2023-05-16T00:49:32.114Z,81.30
2023-05-16T00:52:00.534Z,1.00
2023-05-16T00:54:29.299Z,99.90
2023-05-16T00:56:57.994Z,99.90
2023-05-16T00:59:26.702Z,1.00
2023-05-16T01:01:55.977Z,1.00
2023-05-16T01:04:26.642Z,99.90
2023-05-16T01:06:57.137Z,99.90
2023-05-16T01:09:25.611Z,99.90
2023-05-16T01:12:02.826Z,1.00
2023-05-16T01:14:39.798Z,99.90
2023-05-16T01:17:17.701Z,99.90
2023-05-16T01:20:02.186Z,1.00
2023-05-16T01:22:38.456Z,32.30
2023-05-16T01:25:27.224Z,99.90
2023-05-16T01:27:58.116Z,99.90
2023-05-16T01:30:26.614Z,99.90
2023-05-16T01:32:54.884Z,1.00
2023-05-16T01:35:23.471Z,1.00
2023-05-16T01:37:59.028Z,1.00
2023-05-16T01:40:34.667Z,1.00
2023-05-16T01:43:09.797Z,1.00
2023-05-16T01:45:43.328Z,32.70
2023-05-16T01:48:21.650Z,6.10
2023-05-16T01:50:56.105Z,1.00
2023-05-16T01:53:29.231Z,1.00
2023-05-16T01:55:59.409Z,1.00
2023-05-16T01:58:32.974Z,1.00
2023-05-16T02:01:03.752Z,1.00
2023-05-16T02:03:32.375Z,1.00
2023-05-16T02:06:04.282Z,1.00
2023-05-16T02:08:32.675Z,1.00
2023-05-16T02:11:00.766Z,1.00
2023-05-16T02:13:30.238Z,1.00
2023-05-16T02:15:58.319Z,99.90
2023-05-16T02:18:28.333Z,99.90
2023-05-16T02:20:56.477Z,99.90
2023-05-16T02:23:25.132Z,1.00
2023-05-16T02:25:54.994Z,1.00
2023-05-16T02:28:24.128Z,1.00
2023-05-16T02:30:59.249Z,99.90
2023-05-16T02:33:27.514Z,99.90
2023-05-16T02:35:56.060Z,99.90
2023-05-16T02:38:27.286Z,99.90
2023-05-16T02:40:57.150Z,99.90
2023-05-16T02:43:25.383Z,99.90
2023-05-16T02:45:53.571Z,99.90
2023-05-16T02:48:23.092Z,99.90
2023-05-16T02:50:52.014Z,99.90
2023-05-16T02:53:20.435Z,99.90
2023-05-16T02:55:51.566Z,99.90
2023-05-16T02:58:20.788Z,99.90
2023-05-16T03:00:48.904Z,99.90
2023-05-16T03:03:17.127Z,99.90
2023-05-16T03:05:47.432Z,99.90
2023-05-16T03:08:15.622Z,99.90
2023-05-16T03:10:43.770Z,99.90
2023-05-16T03:13:11.843Z,99.90
2023-05-16T03:15:40.014Z,99.90
2023-05-16T03:18:08.252Z,99.90
2023-05-16T03:20:36.320Z,99.90
2023-05-16T03:23:08.337Z,99.90
2023-05-16T03:25:38.363Z,99.90
2023-05-16T03:28:07.863Z,99.90
2023-05-16T03:30:36.130Z,99.90
2023-05-16T03:33:05.302Z,99.90
2023-05-16T03:35:34.077Z,99.90
2023-05-16T03:38:02.339Z,99.90
2023-05-16T03:40:32.073Z,99.90
2023-05-16T03:43:00.685Z,99.90
2023-05-16T03:45:29.012Z,99.90
2023-05-16T03:47:57.349Z,99.90
2023-05-16T03:50:25.732Z,99.90
2023-05-16T03:52:54.183Z,99.90
2023-05-16T03:55:23.115Z,99.90
2023-05-16T03:57:53.190Z,99.90
2023-05-16T04:00:21.637Z,99.90
2023-05-16T04:02:49.918Z,99.90
2023-05-16T04:05:18.153Z,99.90
2023-05-16T04:07:46.346Z,99.90
2023-05-16T04:10:16.589Z,99.90
2023-05-16T04:12:45.567Z,99.90
2023-05-16T04:15:15.166Z,99.90
2023-05-16T04:17:43.371Z,99.90
2023-05-16T04:20:12.483Z,99.90
2023-05-16T04:22:40.658Z,99.90
2023-05-16T04:25:12.224Z,99.90
2023-05-16T04:27:40.583Z,99.90
2023-05-16T04:30:11.297Z,99.90
2023-05-16T04:32:40.842Z,99.90
2023-05-16T04:35:10.088Z,99.90
2023-05-16T04:37:38.358Z,99.90
2023-05-16T04:40:07.818Z,99.90
2023-05-16T04:42:36.022Z,99.90
2023-05-16T04:45:06.514Z,99.90
2023-05-16T04:47:34.992Z,99.90
2023-05-16T04:50:04.846Z,99.90
2023-05-16T04:52:33.263Z,99.90
2023-05-16T04:55:02.024Z,99.90
2023-05-16T04:57:30.082Z,99.90
2023-05-16T04:59:58.254Z,99.90
2023-05-16T05:02:27.105Z,99.90
2023-05-16T05:04:55.216Z,99.90
2023-05-16T05:07:28.043Z,99.90
2023-05-16T05:09:56.970Z,99.90
2023-05-16T05:12:28.522Z,99.90
2023-05-16T05:14:56.818Z,99.90
2023-05-16T05:17:25.466Z,99.90
2023-05-16T05:19:53.827Z,99.90
2023-05-16T05:22:21.983Z,99.90
2023-05-16T05:24:51.831Z,99.90
2023-05-16T05:27:19.989Z,99.90
2023-05-16T05:29:48.114Z,99.90
2023-05-16T05:32:16.206Z,99.90
2023-05-16T05:34:44.498Z,99.90
2023-05-16T05:37:12.550Z,99.90
2023-05-16T05:39:41.049Z,99.90
2023-05-16T05:42:12.013Z,99.90
2023-05-16T05:44:43.094Z,99.90
2023-05-16T05:47:11.493Z,99.90
2023-05-16T05:49:39.745Z,99.90
2023-05-16T05:52:08.121Z,99.90
2023-05-16T05:54:36.303Z,99.90
2023-05-16T05:57:04.598Z,99.90
2023-05-16T05:59:34.035Z,99.90
2023-05-16T06:02:02.241Z,99.90
2023-05-16T06:04:30.396Z,99.90
2023-05-16T06:06:58.601Z,99.90
2023-05-16T06:09:26.702Z,99.90
2023-05-16T06:11:54.831Z,99.90
2023-05-16T06:14:25.288Z,99.90
2023-05-16T06:16:57.252Z,99.90
2023-05-16T06:19:25.826Z,99.90
2023-05-16T06:21:54.026Z,99.90
2023-05-16T06:24:22.180Z,99.90
2023-05-16T06:26:50.758Z,99.90
2023-05-16T06:29:18.776Z,99.90
2023-05-16T06:31:48.148Z,99.90
2023-05-16T06:34:17.569Z,99.90
2023-05-16T06:36:45.596Z,99.90
2023-05-16T06:39:13.757Z,99.90
2023-05-16T06:41:41.881Z,99.90
2023-05-16T06:44:17.026Z,99.90
2023-05-16T06:46:45.165Z,99.90
2023-05-16T06:49:17.463Z,99.90
2023-05-16T06:51:45.721Z,99.90
2023-05-16T06:54:15.087Z,99.90
2023-05-16T06:56:43.228Z,99.90
2023-05-16T06:59:11.333Z,99.90
2023-05-16T07:01:39.565Z,99.90
2023-05-16T07:04:07.935Z,99.90
2023-05-16T07:06:37.705Z,99.90
2023-05-16T07:09:05.942Z,99.90
2023-05-16T07:11:34.257Z,99.90
2023-05-16T07:14:02.404Z,99.90
2023-05-16T07:16:30.741Z,99.90
2023-05-16T07:18:58.976Z,99.90
2023-05-16T07:21:29.542Z,99.90
2023-05-16T07:24:00.384Z,99.90
2023-05-16T07:26:28.456Z,99.90
2023-05-16T07:28:56.639Z,99.90
2023-05-16T07:31:25.283Z,99.90
2023-05-16T07:33:53.564Z,99.90
2023-05-16T07:36:21.727Z,99.90
2023-05-16T07:38:49.908Z,99.90
2023-05-16T07:41:19.831Z,99.90
2023-05-16T07:43:48.041Z,99.90
2023-05-16T07:46:16.230Z,99.90
2023-05-16T07:48:44.340Z,99.90
2023-05-16T07:51:12.495Z,99.90
2023-05-16T07:53:41.152Z,99.90
2023-05-16T07:56:11.560Z,99.90
2023-05-16T07:58:44.000Z,99.90
2023-05-16T08:01:12.478Z,99.90
2023-05-16T08:03:40.681Z,99.90
2023-05-16T08:06:09.184Z,99.90
2023-05-16T08:08:38.066Z,99.90
2023-05-16T08:11:06.710Z,99.90
2023-05-16T08:13:35.056Z,99.90
2023-05-16T08:16:04.932Z,99.90
2023-05-16T08:18:33.245Z,99.90
2023-05-16T08:21:01.494Z,99.90
2023-05-16T08:23:29.754Z,99.90
2023-05-16T08:25:58.740Z,99.90
2023-05-16T08:28:29.450Z,99.90
2023-05-16T08:30:57.639Z,99.90
2023-05-16T08:33:27.110Z,99.90
2023-05-16T08:35:55.260Z,99.90
2023-05-16T08:38:23.466Z,99.90
2023-05-16T08:40:51.992Z,99.90
2023-05-16T08:43:20.299Z,99.90
2023-05-16T08:45:48.795Z,99.90
2023-05-16T08:48:23.961Z,99.90
2023-05-16T08:50:53.709Z,99.90
2023-05-16T08:53:27.907Z,99.90
2023-05-16T08:55:56.627Z,99.90
2023-05-16T08:58:24.929Z,99.90
2023-05-16T09:00:53.148Z,99.90
2023-05-16T09:03:24.262Z,99.90
2023-05-16T09:05:53.871Z,99.90
2023-05-16T09:08:22.034Z,99.90
2023-05-16T09:10:50.170Z,99.90
2023-05-16T09:13:18.515Z,99.90
2023-05-16T09:15:46.738Z,99.90
2023-05-16T09:18:15.096Z,99.90
2023-05-16T09:20:47.816Z,99.90
2023-05-16T09:23:24.950Z,99.90
2023-05-16T09:25:55.610Z,99.90
2023-05-16T09:28:23.877Z,99.90
2023-05-16T09:30:54.186Z,99.90
2023-05-16T09:33:24.047Z,99.90
2023-05-16T09:35:58.166Z,99.90
2023-05-16T09:38:28.925Z,99.90
2023-05-16T09:40:57.326Z,99.90
2023-05-16T09:43:28.664Z,99.90
2023-05-16T09:46:00.904Z,99.90
2023-05-16T09:48:29.361Z,99.90
2023-05-16T09:51:03.330Z,99.90
2023-05-16T09:53:34.294Z,99.90
2023-05-16T09:56:04.196Z,99.90
2023-05-16T09:58:35.928Z,99.90
2023-05-16T10:01:04.630Z,99.90
2023-05-16T10:03:35.654Z,99.90
2023-05-16T10:06:05.786Z,99.90
2023-05-16T10:08:36.734Z,99.90
2023-05-16T10:11:06.785Z,99.90
2023-05-16T10:13:36.744Z,99.90
2023-05-16T10:16:09.017Z,99.90
2023-05-16T10:18:39.384Z,99.90
2023-05-16T10:21:11.596Z,99.90
2023-05-16T10:23:43.837Z,99.90
2023-05-16T10:26:14.735Z,99.90
2023-05-16T10:28:43.494Z,99.90
2023-05-16T10:31:12.625Z,99.90
2023-05-16T10:33:41.846Z,99.90
2023-05-16T10:36:11.067Z,99.90
2023-05-16T10:38:41.522Z,99.90
2023-05-16T10:41:11.321Z,99.90
2023-05-16T10:43:40.530Z,99.90
2023-05-16T10:46:11.908Z,99.90
2023-05-16T10:48:44.184Z,99.90
2023-05-16T10:51:36.510Z,99.90
2023-05-16T10:54:10.483Z,99.90
2023-05-16T10:56:38.794Z,99.90
2023-05-16T10:59:24.441Z,99.90
2023-05-16T11:01:55.203Z,99.90
2023-05-16T11:04:23.550Z,99.90
2023-05-16T11:06:53.767Z,99.90
2023-05-16T11:09:28.371Z,99.90
2023-05-16T11:12:04.015Z,99.90
2023-05-16T11:14:38.859Z,99.90
2023-05-16T11:17:12.668Z,99.90
2023-05-16T11:19:43.431Z,99.90
2023-05-16T11:22:27.347Z,99.90
2023-05-16T11:25:00.259Z,99.90
2023-05-16T11:27:30.876Z,99.90
2023-05-16T11:30:03.793Z,99.90
2023-05-16T11:32:35.020Z,99.90
2023-05-16T11:35:04.597Z,99.90
2023-05-16T11:37:32.959Z,99.90
2023-05-16T11:40:05.388Z,99.90
2023-05-16T11:42:37.324Z,99.90
2023-05-16T11:45:07.548Z,99.90
2023-05-16T11:47:37.513Z,99.90
2023-05-16T11:50:07.835Z,99.90
2023-05-16T11:52:36.398Z,99.90
2023-05-16T11:55:08.135Z,99.90
2023-05-16T11:57:36.522Z,98.40
2023-05-16T12:00:08.133Z,92.10
2023-05-16T12:02:36.520Z,85.60
2023-05-16T12:05:10.096Z,82.20
2023-05-16T12:07:38.683Z,82.10
2023-05-16T12:10:09.796Z,82.10
2023-05-16T12:12:39.655Z,83.60
2023-05-16T12:15:10.748Z,88.40
2023-05-16T12:17:41.216Z,89.20
2023-05-16T12:20:14.331Z,88.70
2023-05-16T12:22:43.391Z,89.00
2023-05-16T12:25:27.728Z,90.00
2023-05-16T12:27:56.722Z,90.00
2023-05-16T12:30:25.916Z,88.40
2023-05-16T12:32:59.938Z,89.50
2023-05-16T12:35:34.969Z,89.10
2023-05-16T12:38:06.029Z,90.00
2023-05-16T12:40:37.541Z,88.00
2023-05-16T12:43:06.026Z,85.10
2023-05-16T12:45:35.541Z,84.40
2023-05-16T12:48:12.807Z,82.10
2023-05-16T12:50:41.958Z,81.30
2023-05-16T12:53:14.682Z,79.70
2023-05-16T12:55:44.936Z,76.30
2023-05-16T12:58:13.837Z,74.80
2023-05-16T13:00:42.144Z,73.30
2023-05-16T13:03:10.731Z,69.60
2023-05-16T13:05:39.033Z,69.20
2023-05-16T13:08:07.438Z,68.00
2023-05-16T13:10:36.165Z,67.00
2023-05-16T13:13:05.736Z,66.80
2023-05-16T13:15:36.512Z,66.70
2023-05-16T13:18:04.888Z,67.70
2023-05-16T13:20:33.135Z,68.80
2023-05-16T13:23:01.754Z,69.40
2023-05-16T13:25:30.237Z,69.90
2023-05-16T13:27:58.612Z,69.40
2023-05-16T13:30:28.948Z,67.70
2023-05-16T13:32:57.246Z,66.10
2023-05-16T13:35:26.612Z,63.90
2023-05-16T13:37:55.025Z,61.40
2023-05-16T13:40:23.211Z,60.50
2023-05-16T13:42:51.679Z,58.30
2023-05-16T13:45:19.903Z,58.80
2023-05-16T13:47:49.567Z,59.10
2023-05-16T13:50:17.870Z,58.20
2023-05-16T13:52:47.487Z,58.50
2023-05-16T13:55:15.823Z,57.90
2023-05-16T13:57:46.207Z,59.60
2023-05-16T14:00:42.740Z,59.70
2023-05-16T14:03:07.090Z,59.80
2023-05-16T14:05:35.874Z,59.20
2023-05-16T14:08:04.697Z,58.40
2023-05-16T14:10:33.051Z,57.60
2023-05-16T14:13:01.571Z,55.20
2023-05-16T14:15:30.181Z,55.00
2023-05-16T14:17:59.573Z,54.70
2023-05-16T14:20:29.273Z,55.10
2023-05-16T14:22:57.916Z,55.50
2023-05-16T14:25:27.135Z,55.60
2023-05-16T14:27:55.590Z,55.70
2023-05-16T14:30:25.160Z,55.90
2023-05-16T14:32:53.540Z,55.00
2023-05-16T14:35:21.861Z,56.10
2023-05-16T14:37:51.856Z,56.90
2023-05-16T14:40:21.664Z,57.20
2023-05-16T14:42:50.766Z,56.90
2023-05-16T14:45:19.908Z,56.40
2023-05-16T14:47:48.701Z,55.50
2023-05-16T14:50:17.257Z,54.40
2023-05-16T14:52:45.684Z,52.30
2023-05-16T14:55:15.726Z,51.40
2023-05-16T14:57:45.521Z,51.60
2023-05-16T15:00:17.018Z,51.80
2023-05-16T15:02:46.348Z,51.60
2023-05-16T15:05:14.883Z,51.30
2023-05-16T15:07:44.406Z,52.00
2023-05-16T15:10:14.280Z,53.00
2023-05-16T15:12:43.343Z,53.20
2023-05-16T15:15:14.945Z,51.80
2023-05-16T15:17:45.316Z,51.60
2023-05-16T15:20:13.868Z,51.50
2023-05-16T15:22:42.243Z,51.20
2023-05-16T15:25:11.914Z,50.70
2023-05-16T15:27:41.393Z,50.10
2023-05-16T15:30:10.736Z,50.90
2023-05-16T15:32:39.064Z,51.40
2023-05-16T15:35:07.863Z,51.50
2023-05-16T15:37:36.208Z,51.00
2023-05-16T15:40:08.989Z,50.60
2023-05-16T15:42:38.093Z,50.10
2023-05-16T15:45:09.374Z,49.30
2023-05-16T15:47:37.577Z,49.00
2023-05-16T15:50:06.568Z,48.50
2023-05-16T15:52:35.912Z,48.30
2023-05-16T15:55:04.563Z,49.20
2023-05-16T15:57:32.876Z,48.20
2023-05-16T16:00:01.210Z,47.10
2023-05-16T16:02:30.904Z,46.60
2023-05-16T16:05:01.881Z,47.50
2023-05-16T16:07:30.139Z,47.80
2023-05-16T16:09:59.647Z,47.70
2023-05-16T16:12:31.288Z,48.20
2023-05-16T16:14:59.846Z,47.90
2023-05-16T16:17:28.567Z,47.40
2023-05-16T16:19:58.195Z,47.30
2023-05-16T16:22:26.575Z,47.60
2023-05-16T16:24:54.943Z,47.90
2023-05-16T16:27:25.374Z,47.50
2023-05-16T16:29:53.644Z,46.30
2023-05-16T16:32:23.868Z,47.20
2023-05-16T16:34:52.257Z,46.80
2023-05-16T16:37:22.249Z,46.50
2023-05-16T16:39:50.448Z,46.60
2023-05-16T16:42:18.645Z,46.60
2023-05-16T16:44:47.130Z,47.70
2023-05-16T16:47:15.814Z,47.90
2023-05-16T16:49:45.383Z,47.90
2023-05-16T16:52:13.561Z,47.80
2023-05-16T16:54:43.114Z,47.20
2023-05-16T16:57:11.310Z,46.80
2023-05-16T16:59:39.477Z,47.00
2023-05-16T17:02:08.292Z,46.80
2023-05-16T17:04:36.669Z,46.40
2023-05-16T17:07:04.832Z,46.50
2023-05-16T17:09:33.255Z,45.50
2023-05-16T17:12:07.942Z,45.20
2023-05-16T17:14:36.520Z,45.30
2023-05-16T17:17:04.871Z,45.10
2023-05-16T17:19:33.114Z,45.00
2023-05-16T17:22:01.291Z,45.30
2023-05-16T17:24:29.544Z,45.70
2023-05-16T17:26:58.079Z,46.20
2023-05-16T17:29:28.226Z,46.90
2023-05-16T17:31:56.678Z,47.70
2023-05-16T17:34:25.035Z,48.40
2023-05-16T17:36:53.502Z,49.60
2023-05-16T17:39:21.874Z,49.70
2023-05-16T17:41:50.163Z,50.10
2023-05-16T17:44:18.961Z,50.70
2023-05-16T17:46:48.739Z,51.10
2023-05-16T17:49:17.213Z,51.60
2023-05-16T17:51:49.862Z,51.90
2023-05-16T17:54:19.255Z,52.20
2023-05-16T17:56:51.337Z,53.00
2023-05-16T17:59:20.333Z,52.30
2023-05-16T18:01:52.683Z,52.30
2023-05-16T18:04:22.497Z,52.30
2023-05-16T18:06:52.395Z,52.40
2023-05-16T18:09:21.187Z,52.50
2023-05-16T18:11:50.540Z,53.00
2023-05-16T18:14:19.248Z,53.60
2023-05-16T18:16:47.686Z,54.10
2023-05-16T18:19:17.476Z,54.40
2023-05-16T18:21:46.200Z,54.90
2023-05-16T18:24:16.540Z,54.60
2023-05-16T18:26:48.261Z,55.00
2023-05-16T18:29:17.302Z,55.30
2023-05-16T18:31:46.571Z,55.50
2023-05-16T18:34:16.128Z,55.30
2023-05-16T18:36:46.321Z,55.60
2023-05-16T18:39:17.937Z,55.80
2023-05-16T18:41:48.195Z,56.10
2023-05-16T18:44:17.739Z,56.20
2023-05-16T18:46:47.350Z,56.60
2023-05-16T18:49:19.269Z,57.00
2023-05-16T18:51:47.460Z,57.40
2023-05-16T18:54:15.649Z,57.90
2023-05-16T18:56:44.028Z,58.40
2023-05-16T18:59:12.548Z,59.00
2023-05-16T19:01:40.863Z,59.30
2023-05-16T19:04:09.450Z,59.70
2023-05-16T19:06:40.190Z,59.90
2023-05-16T19:09:09.270Z,60.40
2023-05-16T19:11:37.929Z,60.70
2023-05-16T19:14:08.032Z,60.80
2023-05-16T19:16:38.950Z,60.90
2023-05-16T19:19:09.736Z,61.30
2023-05-16T19:21:39.805Z,61.40
2023-05-16T19:24:09.181Z,61.80
2023-05-16T19:26:37.320Z,62.30
2023-05-16T19:29:05.570Z,62.10
2023-05-16T19:31:33.912Z,61.90
2023-05-16T19:34:02.231Z,62.40
2023-05-16T19:36:31.961Z,62.50
2023-05-16T19:39:01.586Z,62.80
2023-05-16T19:41:29.916Z,62.30
2023-05-16T19:43:58.104Z,61.60
2023-05-16T19:46:26.832Z,61.70
2023-05-16T19:48:55.287Z,61.90
2023-05-16T19:51:40.272Z,62.20
2023-05-16T19:54:11.355Z,61.90
2023-05-16T19:56:39.561Z,62.00
2023-05-16T19:59:07.813Z,62.40
2023-05-16T20:01:36.163Z,62.70
2023-05-16T20:04:05.441Z,63.10
2023-05-16T20:06:33.776Z,63.20
2023-05-16T20:09:06.228Z,63.60
2023-05-16T20:11:36.748Z,64.00
2023-05-16T20:14:05.163Z,64.40
2023-05-16T20:16:33.484Z,65.00
2023-05-16T20:19:01.779Z,65.40
2023-05-16T20:21:30.172Z,65.80
2023-05-16T20:23:59.291Z,66.40
2023-05-16T20:26:30.114Z,67.20
2023-05-16T20:28:59.845Z,67.80
2023-05-16T20:31:31.314Z,68.20
2023-05-16T20:33:59.940Z,67.20
2023-05-16T20:36:28.313Z,67.40
2023-05-16T20:38:56.484Z,67.50
2023-05-16T20:41:24.685Z,67.40
2023-05-16T20:43:52.940Z,67.80
2023-05-16T20:46:22.528Z,68.00
2023-05-16T20:48:50.863Z,68.50
2023-05-16T20:51:19.159Z,69.10
2023-05-16T20:53:47.379Z,69.80
2023-05-16T20:56:15.555Z,69.60
2023-05-16T20:58:44.146Z,69.80
2023-05-16T21:01:12.560Z,69.60
2023-05-16T21:03:42.365Z,69.80
2023-05-16T21:06:10.747Z,70.10
2023-05-16T21:08:39.286Z,70.40
2023-05-16T21:11:07.606Z,70.40
2023-05-16T21:13:35.803Z,71.20
2023-05-16T21:16:04.144Z,71.90
2023-05-16T21:18:32.648Z,72.40
2023-05-16T21:21:02.355Z,72.90
2023-05-16T21:23:32.786Z,73.30
2023-05-16T21:26:00.940Z,73.90
2023-05-16T21:28:31.157Z,74.80
2023-05-16T21:31:03.049Z,75.10
2023-05-16T21:33:31.260Z,75.90
2023-05-16T21:36:00.410Z,76.60
2023-05-16T21:38:29.911Z,76.80
2023-05-16T21:40:58.505Z,77.20
2023-05-16T21:43:26.702Z,77.80
2023-05-16T21:45:54.898Z,78.60
2023-05-16T21:48:23.343Z,79.10
2023-05-16T21:50:52.094Z,79.60
2023-05-16T21:53:20.350Z,80.00
2023-05-16T21:55:49.900Z,80.30
2023-05-16T21:58:19.057Z,81.10
2023-05-16T22:00:47.466Z,81.20
2023-05-16T22:03:19.041Z,82.70
2023-05-16T22:05:47.725Z,82.90
2023-05-16T22:08:15.888Z,83.60
2023-05-16T22:10:44.091Z,83.10
2023-05-16T22:13:15.841Z,83.40
2023-05-16T22:15:49.303Z,83.70
2023-05-16T22:18:24.137Z,85.10
2023-05-16T22:20:52.385Z,85.80
2023-05-16T22:23:20.592Z,86.80
2023-05-16T22:25:48.720Z,87.70
2023-05-16T22:28:18.489Z,88.40
2023-05-16T22:30:46.605Z,89.50
2023-05-16T22:33:14.840Z,90.30
2023-05-16T22:35:43.085Z,90.90
2023-05-16T22:38:11.232Z,91.60
2023-05-16T22:40:41.018Z,92.30
2023-05-16T22:43:10.329Z,92.90
2023-05-16T22:45:39.821Z,93.50
2023-05-16T22:48:08.140Z,94.70
2023-05-16T22:50:36.615Z,95.70
2023-05-16T22:53:04.695Z,96.10
2023-05-16T22:55:33.881Z,96.80
2023-05-16T22:58:01.993Z,96.20
2023-05-16T23:00:30.556Z,97.00
2023-05-16T23:03:00.194Z,97.90
2023-05-16T23:05:30.734Z,99.00
2023-05-16T23:07:59.105Z,99.30
2023-05-16T23:10:27.224Z,99.90
2023-05-16T23:12:55.386Z,99.90
2023-05-16T23:15:23.701Z,99.90
2023-05-16T23:17:51.981Z,99.90
2023-05-16T23:20:22.435Z,99.90
2023-05-16T23:22:50.523Z,99.90
2023-05-16T23:25:18.758Z,99.90
2023-05-16T23:27:47.243Z,99.90
2023-05-16T23:30:16.222Z,99.90
2023-05-16T23:32:44.449Z,99.90
2023-05-16T23:35:12.532Z,99.90
2023-05-16T23:37:42.006Z,99.90
2023-05-16T23:40:11.062Z,99.90
2023-05-16T23:42:40.704Z,99.90
2023-05-16T23:45:12.203Z,99.90
2023-05-16T23:47:40.406Z,99.90
2023-05-16T23:50:09.505Z,99.90
2023-05-16T23:52:37.896Z,99.90
2023-05-16T23:55:08.644Z,99.90
2023-05-16T23:57:38.600Z,99.90
